createdAt,value
2023-08-21T00:01:52.673Z,1.00
2023-08-21T00:04:23.217Z,1.00
2023-08-21T00:06:53.933Z,1.00
2023-08-21T00:09:24.086Z,1.00
2023-08-21T00:11:54.506Z,1.00
2023-08-21T00:14:27.218Z,1.00
2023-08-21T00:16:57.601Z,1.00
2023-08-21T00:19:27.722Z,1.00
2023-08-21T00:21:58.372Z,1.00
2023-08-21T00:24:28.717Z,1.00
2023-08-21T00:26:59.361Z,1.00
2023-08-21T00:29:32.403Z,1.00
2023-08-21T00:32:02.424Z,1.00
2023-08-21T00:34:32.867Z,1.00
2023-08-21T00:37:02.909Z,1.00
2023-08-21T00:39:33.378Z,1.00
2023-08-21T00:42:03.497Z,1.00
2023-08-21T00:44:36.564Z,1.00
2023-08-21T00:47:06.815Z,1.00
2023-08-21T00:49:37.500Z,1.00
2023-08-21T00:52:07.946Z,1.00
2023-08-21T00:54:38.480Z,1.00
2023-08-21T00:57:09.803Z,1.00
2023-08-21T00:59:43.038Z,1.00
2023-08-21T01:02:13.185Z,1.00
2023-08-21T01:04:43.365Z,1.00
2023-08-21T01:07:13.910Z,1.00
2023-08-21T01:09:49.792Z,1.00
2023-08-21T01:12:27.961Z,1.00
2023-08-21T01:15:04.322Z,1.00
2023-08-21T01:17:35.139Z,1.00
2023-08-21T01:20:07.433Z,1.00
2023-08-21T01:22:41.876Z,1.00
2023-08-21T01:25:17.248Z,1.00
2023-08-21T01:27:51.188Z,1.00
2023-08-21T01:30:21.658Z,1.00
2023-08-21T01:32:58.495Z,1.00
2023-08-21T01:35:30.606Z,1.00
2023-08-21T01:38:01.504Z,1.00
2023-08-21T01:40:34.406Z,1.00
2023-08-21T01:43:04.459Z,1.00
2023-08-21T01:45:35.476Z,1.00
2023-08-21T01:48:05.702Z,1.00
2023-08-21T01:50:36.181Z,1.00
2023-08-21T01:53:06.282Z,1.00
2023-08-21T01:55:39.434Z,1.00
2023-08-21T01:58:09.601Z,1.00
2023-08-21T02:00:39.676Z,1.00
2023-08-21T02:03:09.953Z,1.00
2023-08-21T02:05:43.428Z,1.00
2023-08-21T02:08:16.112Z,1.00
2023-08-21T02:10:58.048Z,1.00
2023-08-21T02:13:28.879Z,1.00
2023-08-21T02:15:59.219Z,1.00
2023-08-21T02:18:30.590Z,8.50
2023-08-21T02:21:01.992Z,1.00
2023-08-21T02:23:33.047Z,1.00
2023-08-21T02:26:08.294Z,1.00
2023-08-21T02:28:38.527Z,18.70
2023-08-21T02:31:09.089Z,36.40
2023-08-21T02:33:40.596Z,65.10
2023-08-21T02:36:11.698Z,83.90
2023-08-21T02:38:41.785Z,91.30
2023-08-21T02:41:17.026Z,32.00
2023-08-21T02:43:48.610Z,14.40
2023-08-21T02:46:19.125Z,1.00
2023-08-21T02:48:49.245Z,1.00
2023-08-21T02:51:21.003Z,1.00
2023-08-21T02:53:51.150Z,1.00
2023-08-21T02:56:24.276Z,1.00
2023-08-21T02:58:54.685Z,49.40
2023-08-21T03:01:24.920Z,98.70
2023-08-21T03:03:55.069Z,99.90
2023-08-21T03:06:25.113Z,99.90
2023-08-21T03:08:55.806Z,99.90
2023-08-21T03:11:28.473Z,99.90
2023-08-21T03:13:58.936Z,17.20
2023-08-21T03:16:29.311Z,1.00
2023-08-21T03:19:01.733Z,1.00
2023-08-21T03:21:33.794Z,1.00
2023-08-21T03:24:05.393Z,1.00
2023-08-21T03:26:39.421Z,1.00
2023-08-21T03:29:09.703Z,1.00
2023-08-21T03:31:39.842Z,1.00
2023-08-21T03:34:10.387Z,1.00
2023-08-21T03:36:41.048Z,1.00
2023-08-21T03:39:12.558Z,1.00
2023-08-21T03:41:50.185Z,1.00
2023-08-21T03:44:20.276Z,32.50
2023-08-21T03:46:50.923Z,54.70
2023-08-21T03:49:21.069Z,31.40
2023-08-21T03:51:52.877Z,1.00
2023-08-21T03:54:24.697Z,1.00
2023-08-21T03:56:57.982Z,28.00
2023-08-21T03:59:28.892Z,99.90
2023-08-21T04:01:59.097Z,99.90
2023-08-21T04:04:29.751Z,99.90
2023-08-21T04:06:59.808Z,99.90
2023-08-21T04:09:30.874Z,99.90
2023-08-21T04:12:04.005Z,99.90
2023-08-21T04:14:34.257Z,99.90
2023-08-21T04:17:04.311Z,99.90
2023-08-21T04:19:35.837Z,99.90
2023-08-21T04:22:06.393Z,99.90
2023-08-21T04:24:36.494Z,99.90
2023-08-21T04:27:09.663Z,99.90
2023-08-21T04:29:40.416Z,99.90
2023-08-21T04:32:11.139Z,99.90
2023-08-21T04:34:41.389Z,99.90
2023-08-21T04:37:11.458Z,99.90
2023-08-21T04:39:41.593Z,99.90
2023-08-21T04:42:15.188Z,99.90
2023-08-21T04:44:46.032Z,99.90
2023-08-21T04:47:27.531Z,99.90
2023-08-21T04:50:00.699Z,99.90
2023-08-21T04:52:32.790Z,99.90
2023-08-21T04:55:03.714Z,99.90
2023-08-21T04:57:39.673Z,99.90
2023-08-21T05:00:13.573Z,94.30
2023-08-21T05:02:46.074Z,41.80
2023-08-21T05:05:16.332Z,13.60
2023-08-21T05:07:46.434Z,11.90
2023-08-21T05:10:17.224Z,1.00
2023-08-21T05:12:51.457Z,36.50
2023-08-21T05:15:22.588Z,99.90
2023-08-21T05:17:52.725Z,99.90
2023-08-21T05:20:25.115Z,99.90
2023-08-21T05:22:55.239Z,99.90
2023-08-21T05:25:25.762Z,99.90
2023-08-21T05:27:58.962Z,93.60
2023-08-21T05:30:30.097Z,99.90
2023-08-21T05:33:01.554Z,99.90
2023-08-21T05:35:31.767Z,89.60
2023-08-21T05:38:02.022Z,1.00
2023-08-21T05:40:32.404Z,1.00
2023-08-21T05:43:05.174Z,1.00
2023-08-21T05:45:36.017Z,1.00
2023-08-21T05:48:07.378Z,1.00
2023-08-21T05:50:38.154Z,1.00
2023-08-21T05:53:09.087Z,99.90
2023-08-21T05:55:41.190Z,99.90
2023-08-21T05:58:14.295Z,99.90
2023-08-21T06:00:45.742Z,99.90
2023-08-21T06:03:15.951Z,99.90
2023-08-21T07:07:59.137Z,99.90
2023-08-21T07:10:29.237Z,99.90
2023-08-21T07:13:05.569Z,99.90
2023-08-21T07:15:41.353Z,99.90
2023-08-21T07:18:12.138Z,99.90
2023-08-21T07:20:51.157Z,99.90
2023-08-21T07:23:25.023Z,99.90
2023-08-21T07:25:59.388Z,99.90
2023-08-21T07:28:32.386Z,99.90
2023-08-21T07:31:04.346Z,99.90
2023-08-21T07:33:41.728Z,99.90
2023-08-21T07:36:19.069Z,99.90
2023-08-21T07:38:55.530Z,99.90
2023-08-21T07:41:45.557Z,99.90
2023-08-21T07:44:18.388Z,99.90
2023-08-21T07:46:48.564Z,99.90
2023-08-21T07:49:27.442Z,99.90
2023-08-21T07:51:59.510Z,99.90
2023-08-21T07:54:32.851Z,99.90
2023-08-21T07:57:03.245Z,99.90
2023-08-21T07:59:33.636Z,99.90
2023-08-21T08:02:05.735Z,99.90
2023-08-21T08:04:35.998Z,1.00
2023-08-21T08:07:15.348Z,1.00
2023-08-21T08:09:48.468Z,1.00
2023-08-21T08:12:28.830Z,1.00
2023-08-21T08:14:59.212Z,1.00
2023-08-21T08:17:30.736Z,1.00
2023-08-21T08:20:00.963Z,1.00
2023-08-21T08:22:31.976Z,1.00
2023-08-21T08:25:07.381Z,1.00
2023-08-21T08:27:37.784Z,1.00
2023-08-21T08:30:09.795Z,1.00
2023-08-21T08:32:44.989Z,1.00
2023-08-21T08:35:17.253Z,1.00
2023-08-21T08:37:48.653Z,1.00
2023-08-21T08:40:21.998Z,1.00
2023-08-21T08:42:52.616Z,1.00
2023-08-21T08:45:33.192Z,1.00
2023-08-21T08:48:10.682Z,1.00
2023-08-21T08:50:43.298Z,1.00
2023-08-21T08:53:21.119Z,1.00
2023-08-21T08:56:02.073Z,1.00
2023-08-21T08:58:34.349Z,99.90
2023-08-21T09:01:09.802Z,99.90
2023-08-21T09:03:46.740Z,99.90
2023-08-21T09:06:23.196Z,99.90
2023-08-21T09:09:04.349Z,99.90
2023-08-21T09:11:57.842Z,99.90
2023-08-21T09:14:32.085Z,99.90
2023-08-21T09:17:05.452Z,99.90
2023-08-21T09:19:44.977Z,99.90
2023-08-21T09:22:20.233Z,99.90
2023-08-21T09:25:08.154Z,99.90
2023-08-21T09:27:45.417Z,99.90
2023-08-21T09:30:28.732Z,99.90
2023-08-21T09:33:01.868Z,99.90
2023-08-21T09:35:32.690Z,99.90
2023-08-21T09:38:03.685Z,99.90
2023-08-21T09:40:34.478Z,99.90
2023-08-21T09:43:08.531Z,99.90
2023-08-21T09:45:38.906Z,99.90
2023-08-21T09:48:11.269Z,99.90
2023-08-21T09:50:44.087Z,99.90
2023-08-21T09:53:16.456Z,99.90
2023-08-21T09:55:47.482Z,99.90
2023-08-21T09:58:21.256Z,99.90
2023-08-21T10:00:53.321Z,99.90
2023-08-21T10:03:28.558Z,99.90
2023-08-21T10:06:01.776Z,99.90
2023-08-21T10:08:33.128Z,99.90
2023-08-21T10:11:06.303Z,99.90
2023-08-21T10:13:42.183Z,99.90
2023-08-21T10:16:13.341Z,99.90
2023-08-21T10:18:49.734Z,99.90
2023-08-21T10:21:22.857Z,99.90
2023-08-21T10:23:55.183Z,99.90
2023-08-21T10:26:26.416Z,99.90
2023-08-21T10:29:00.844Z,99.90
2023-08-21T10:31:36.616Z,99.90
2023-08-21T10:34:09.372Z,1.00
2023-08-21T10:37:13.924Z,1.00
2023-08-21T10:39:59.396Z,99.90
2023-08-21T10:42:45.376Z,1.00
2023-08-21T10:45:18.430Z,1.00
2023-08-21T10:47:51.976Z,99.90
2023-08-21T10:50:22.994Z,99.90
2023-08-21T10:52:55.933Z,99.90
2023-08-21T10:55:26.754Z,99.90
2023-08-21T10:57:56.853Z,99.90
2023-08-21T11:00:29.882Z,99.90
2023-08-21T11:03:00.088Z,99.90
2023-08-21T11:05:30.752Z,99.90
2023-08-21T11:08:02.313Z,99.90
2023-08-21T11:10:37.047Z,99.90
2023-08-21T11:13:10.991Z,99.90
2023-08-21T11:15:43.949Z,99.90
2023-08-21T11:18:14.694Z,99.90
2023-08-21T11:20:46.243Z,99.90
2023-08-21T11:23:18.967Z,99.90
2023-08-21T11:25:51.322Z,99.90
2023-08-21T11:28:21.810Z,99.90
2023-08-21T11:30:54.600Z,99.90
2023-08-21T11:33:25.435Z,99.90
2023-08-21T11:35:58.921Z,99.90
2023-08-21T11:38:30.960Z,99.90
2023-08-21T11:41:03.182Z,99.90
2023-08-21T11:43:40.568Z,99.90
2023-08-21T11:46:15.206Z,99.90
2023-08-21T11:48:46.457Z,99.90
2023-08-21T11:51:17.238Z,99.90
2023-08-21T11:53:47.308Z,99.90
2023-08-21T11:56:20.010Z,99.90
2023-08-21T11:58:52.056Z,99.90
2023-08-21T12:01:25.894Z,99.90
2023-08-21T12:03:58.667Z,99.90
2023-08-21T12:06:33.702Z,99.90
2023-08-21T12:09:05.909Z,99.90
2023-08-21T12:11:36.861Z,99.90
2023-08-21T12:14:08.164Z,99.90
2023-08-21T12:16:44.198Z,99.90
2023-08-21T12:19:16.358Z,99.90
2023-08-21T12:21:46.716Z,99.90
2023-08-21T12:24:19.877Z,99.90
2023-08-21T12:26:51.718Z,99.90
2023-08-21T12:29:22.191Z,99.90
2023-08-21T12:31:55.197Z,99.90
2023-08-21T12:34:25.994Z,99.90
2023-08-21T12:36:57.113Z,99.90
2023-08-21T12:39:27.202Z,99.90
2023-08-21T12:42:03.228Z,99.90
2023-08-21T12:47:06.654Z,99.90
2023-08-21T12:49:38.209Z,99.90
2023-08-21T12:52:10.997Z,99.90
2023-08-21T12:54:41.405Z,99.90
2023-08-21T12:57:13.204Z,99.90
2023-08-21T12:59:45.217Z,99.90
2023-08-21T13:02:24.587Z,99.90
2023-08-21T13:04:55.576Z,99.90
2023-08-21T13:07:25.845Z,99.90
2023-08-21T13:09:56.720Z,99.90
2023-08-21T13:12:26.905Z,99.90
2023-08-21T13:14:57.986Z,99.90
2023-08-21T13:17:31.081Z,99.90
2023-08-21T13:20:01.448Z,99.90
2023-08-21T13:22:31.586Z,99.90
2023-08-21T13:25:02.260Z,99.90
2023-08-21T13:27:35.221Z,99.90
2023-08-21T13:30:06.844Z,99.90
2023-08-21T13:32:39.874Z,99.90
2023-08-21T13:35:11.719Z,99.90
2023-08-21T13:37:43.164Z,99.90
2023-08-21T13:40:15.448Z,99.90
2023-08-21T13:42:48.189Z,99.90
2023-08-21T13:45:20.273Z,99.90
2023-08-21T13:47:54.150Z,99.90
2023-08-21T13:50:24.644Z,99.90
2023-08-21T13:52:55.118Z,99.90
2023-08-21T13:55:25.336Z,99.90
2023-08-21T13:57:55.817Z,99.90
2023-08-21T14:00:26.232Z,99.90
2023-08-21T14:02:59.119Z,99.90
2023-08-21T14:05:31.099Z,99.90
2023-08-21T14:08:01.405Z,99.90
2023-08-21T14:10:32.058Z,99.90
2023-08-21T14:13:04.858Z,99.90
2023-08-21T14:15:35.438Z,99.90
2023-08-21T14:18:11.317Z,99.90
2023-08-21T14:20:42.035Z,99.90
2023-08-21T14:23:12.207Z,99.90
2023-08-21T14:25:42.843Z,99.90
2023-08-21T14:28:13.114Z,99.90
2023-08-21T14:30:44.318Z,99.90
2023-08-21T14:33:17.176Z,99.90
2023-08-21T14:35:47.341Z,99.90
2023-08-21T14:38:17.945Z,99.90
2023-08-21T14:40:48.017Z,99.90
2023-08-21T14:43:18.467Z,99.90
2023-08-21T14:45:48.584Z,99.90
2023-08-21T14:48:21.626Z,99.90
2023-08-21T14:50:51.718Z,99.90
2023-08-21T14:53:23.271Z,99.90
2023-08-21T14:55:54.633Z,99.90
2023-08-21T14:58:25.093Z,99.90
2023-08-21T15:00:59.203Z,99.90
2023-08-21T15:03:32.273Z,99.90
2023-08-21T15:06:02.777Z,99.90
2023-08-21T15:08:32.972Z,99.90
2023-08-21T15:11:03.865Z,99.90
2023-08-21T15:13:34.489Z,99.90
2023-08-21T15:16:05.370Z,99.90
2023-08-21T15:18:38.053Z,99.90
2023-08-21T15:21:08.120Z,99.90
2023-08-21T15:23:38.248Z,99.90
2023-08-21T15:26:08.675Z,99.90
2023-08-21T15:28:38.724Z,99.90
2023-08-21T15:31:10.120Z,99.90
2023-08-21T15:33:42.822Z,99.90
2023-08-21T15:36:12.928Z,99.90
2023-08-21T15:38:43.279Z,99.90
2023-08-21T15:41:13.336Z,99.90
2023-08-21T15:43:43.715Z,99.90
2023-08-21T15:46:13.827Z,99.90
2023-08-21T15:48:47.184Z,99.90
2023-08-21T15:51:17.301Z,99.90
2023-08-21T15:53:47.687Z,99.90
2023-08-21T15:56:19.264Z,99.90
2023-08-21T15:58:51.766Z,99.90
2023-08-21T16:01:21.877Z,99.90
2023-08-21T16:03:55.061Z,99.90
2023-08-21T16:06:25.330Z,99.90
2023-08-21T16:08:55.460Z,99.90
2023-08-21T16:11:26.483Z,99.90
2023-08-21T16:13:58.588Z,99.90
2023-08-21T16:16:28.717Z,99.90
2023-08-21T16:19:01.496Z,99.90
2023-08-21T16:21:32.748Z,99.90
2023-08-21T16:24:03.472Z,99.90
2023-08-21T16:26:33.888Z,99.90
2023-08-21T16:29:04.092Z,99.90
2023-08-21T16:31:34.437Z,99.90
2023-08-21T16:34:07.692Z,99.90
2023-08-21T16:36:38.148Z,99.90
2023-08-21T16:39:08.458Z,99.90
2023-08-21T16:41:38.622Z,99.90
2023-08-21T16:44:09.163Z,99.90
2023-08-21T16:46:40.011Z,99.90
2023-08-21T16:49:12.918Z,99.90
2023-08-21T16:51:43.030Z,99.90
2023-08-21T16:54:13.371Z,99.90
2023-08-21T16:56:43.445Z,99.90
2023-08-21T16:59:14.300Z,99.90
2023-08-21T17:01:44.429Z,99.90
2023-08-21T17:04:17.288Z,99.90
2023-08-21T17:06:47.783Z,99.90
2023-08-21T17:09:18.573Z,99.90
2023-08-21T17:11:49.010Z,99.90
2023-08-21T17:14:19.115Z,99.90
2023-08-21T17:16:49.762Z,99.90
2023-08-21T17:19:22.363Z,99.90
2023-08-21T17:21:52.840Z,99.90
2023-08-21T17:24:23.109Z,99.90
2023-08-21T17:26:53.475Z,99.90
2023-08-21T17:29:23.490Z,99.90
2023-08-21T17:31:54.050Z,99.90
2023-08-21T17:34:27.026Z,99.90
2023-08-21T17:36:57.070Z,99.90
2023-08-21T17:39:28.609Z,99.90
2023-08-21T17:41:58.572Z,99.90
2023-08-21T17:44:29.061Z,99.90
2023-08-21T17:46:59.351Z,99.90
2023-08-21T17:49:32.576Z,99.90
2023-08-21T17:52:02.647Z,99.90
2023-08-21T17:54:32.685Z,99.90
2023-08-21T17:57:02.666Z,99.90
2023-08-21T17:59:33.336Z,99.90
2023-08-21T18:02:03.337Z,99.90
2023-08-21T18:04:36.161Z,99.90
2023-08-21T18:07:06.732Z,99.90
2023-08-21T18:09:38.083Z,99.90
2023-08-21T18:12:08.523Z,99.90
2023-08-21T18:14:38.568Z,99.90
2023-08-21T18:17:14.945Z,99.90
2023-08-21T18:19:48.235Z,99.90
2023-08-21T18:22:18.701Z,99.90
2023-08-21T18:24:49.285Z,99.90
2023-08-21T18:27:19.486Z,99.90
2023-08-21T18:29:49.543Z,99.90
2023-08-21T18:32:20.034Z,99.90
2023-08-21T18:34:52.749Z,99.90
2023-08-21T18:37:22.873Z,99.90
